Thunder radar more information blitzortung!


Radar de pluja more information rain snow radar


Visita la nostra xarxa de llocs de meteo:

Template documentation
and downloads

And another site



No particular awareness of the weather is required.    There are no Weather-warnings

Pagina Historial Weather Underground text

Diari Resum Setembre 3, 2017 Unitats:  Mètric    Imperial   Tant
« Previous Dia
SegĂźent Dia »
Diari Setmana Mensual Anual Personalitzada
  Maxima: Minima: Media:
Temperatura: 28.6 °C 15.5 °C 22.8 °C
Punt de rosada: 16.7 °C 10.4 °C 13.4 °C
Humitat: 87 % 36 % 58 %
Wind Speed: 15.8 km/h 0.0 km/h 4.7 km/h
RĂ fegues de vent: 16.1 km/h - -
Vent:- - SSE
Pression baro: 1018.8 hPa 1010.7 hPa -
Precipitacions: 0.0 mm    
Historical Graphs
 
 
Dades de taula per Setembre 3, 2017
Temps Temperatura Punt de rosada Pression baro Vent Wind Speed RĂ fegues de vent Humitat Rainfall Rate (Hourly)
00:01 19.7 °C 10.9 °C 1018.8 hPa NNW 7.4 km/h 7.4 km/h 57 % 0.0 mm
00:05 16.2 °C 10.5 °C 1016.8 hPa Calm   3.2 km/h 69 % 0.0 mm
00:06 19.7 °C 10.9 °C 1018.8 hPa NE 5.6 km/h 5.6 km/h 57 % 0.0 mm
00:11 19.7 °C 10.9 °C 1018.8 hPa NNE 6.9 km/h 6.9 km/h 57 % 0.0 mm
00:15 16.2 °C 10.7 °C 1016.8 hPa Calm     70 % 0.0 mm
00:25 16.2 °C 10.7 °C 1016.8 hPa Calm     70 % 0.0 mm
00:35 16.1 °C 10.8 °C 1016.8 hPa Calm     71 % 0.0 mm
00:45 16.1 °C 10.8 °C 1016.8 hPa Calm     71 % 0.0 mm
00:55 16.1 °C 10.8 °C 1016.8 hPa Calm     71 % 0.0 mm
01:05 16.2 °C 11.2 °C 1016.8 hPa Calm     72 % 0.0 mm
01:15 16.2 °C 10.9 °C 1016.8 hPa Calm   1.6 km/h 71 % 0.0 mm
01:25 16.1 °C 11.1 °C 1015.8 hPa Calm   1.6 km/h 72 % 0.0 mm
01:35 16.1 °C 10.8 °C 1015.8 hPa Calm   1.6 km/h 71 % 0.0 mm
01:45 16.1 °C 11.1 °C 1015.8 hPa Calm   1.6 km/h 72 % 0.0 mm
01:55 16.1 °C 11.1 °C 1015.8 hPa Calm   3.2 km/h 72 % 0.0 mm
02:05 16.0 °C 10.9 °C 1015.8 hPa Calm   1.6 km/h 72 % 0.0 mm
02:15 15.7 °C 10.4 °C 1015.8 hPa ENE 1.6 km/h 3.2 km/h 71 % 0.0 mm
02:25 15.6 °C 10.8 °C 1015.8 hPa Calm   1.6 km/h 73 % 0.0 mm
02:35 15.5 °C 10.7 °C 1015.8 hPa Calm     73 % 0.0 mm
02:45 15.6 °C 10.8 °C 1015.8 hPa WSW 1.6 km/h 1.6 km/h 73 % 0.0 mm
02:55 15.6 °C 11.0 °C 1015.8 hPa Calm     74 % 0.0 mm
03:05 15.9 °C 11.1 °C 1015.8 hPa WSW 1.6 km/h 1.6 km/h 73 % 0.0 mm
03:15 16.0 °C 11.2 °C 1015.8 hPa Calm     73 % 0.0 mm
03:25 16.2 °C 11.2 °C 1015.8 hPa SW 1.6 km/h 1.6 km/h 72 % 0.0 mm
03:35 16.3 °C 11.2 °C 1015.8 hPa SW 3.2 km/h 3.2 km/h 72 % 0.0 mm
03:45 16.8 °C 11.9 °C 1015.8 hPa Calm   1.6 km/h 73 % 0.0 mm
03:55 16.8 °C 11.5 °C 1015.8 hPa SSW 1.6 km/h 3.2 km/h 71 % 0.0 mm
04:05 17.3 °C 11.8 °C 1015.8 hPa SSW 1.6 km/h 1.6 km/h 70 % 0.0 mm
04:15 17.7 °C 11.9 °C 1015.8 hPa SW 1.6 km/h 1.6 km/h 69 % 0.0 mm
04:25 18.2 °C 12.2 °C 1015.8 hPa Calm   3.2 km/h 68 % 0.0 mm
04:35 18.6 °C 12.6 °C 1015.8 hPa East 1.6 km/h 1.6 km/h 68 % 0.0 mm
04:45 18.7 °C 12.4 °C 1015.8 hPa NNE 1.6 km/h 6.4 km/h 67 % 0.0 mm
04:55 18.9 °C 12.6 °C 1015.8 hPa West 3.2 km/h 3.2 km/h 67 % 0.0 mm
05:05 19.5 °C 13.0 °C 1015.8 hPa SW 1.6 km/h 4.8 km/h 66 % 0.0 mm
05:15 19.6 °C 12.8 °C 1015.8 hPa SW 1.6 km/h 3.2 km/h 65 % 0.0 mm
05:25 20.0 °C 12.7 °C 1015.8 hPa SW 3.2 km/h 3.2 km/h 63 % 0.0 mm
05:35 20.6 °C 13.3 °C 1015.8 hPa NNE 1.6 km/h 3.2 km/h 63 % 0.0 mm
05:45 20.6 °C 13.1 °C 1015.8 hPa NW 3.2 km/h 4.8 km/h 62 % 0.0 mm
05:55 20.9 °C 13.3 °C 1015.8 hPa WSW 1.6 km/h 4.8 km/h 62 % 0.0 mm
06:05 21.5 °C 13.7 °C 1015.8 hPa SSW 3.2 km/h 4.8 km/h 61 % 0.0 mm
06:20 21.9 °C 14.1 °C 1015.8 hPa SSE 3.2 km/h 3.2 km/h 61 % 0.0 mm
11:22 22.0 °C 13.9 °C 1015.8 hPa ESE 1.9 km/h 2.6 km/h 60 % 0.0 mm
11:23 22.0 °C 13.9 °C 1015.8 hPa SE 5.0 km/h 5.0 km/h 60 % 0.0 mm
11:24 21.9 °C 13.8 °C 1015.8 hPa SE 5.6 km/h 5.6 km/h 60 % 0.0 mm
11:29 22.3 °C 14.2 °C 1015.8 hPa WSW 4.2 km/h 4.2 km/h 60 % 0.0 mm
11:34 22.5 °C 14.1 °C 1015.8 hPa SSE 7.6 km/h 7.6 km/h 59 % 0.0 mm
11:39 22.7 °C 14.0 °C 1015.8 hPa East 5.0 km/h 5.0 km/h 58 % 0.0 mm
11:44 22.6 °C 13.9 °C 1015.8 hPa ENE 5.6 km/h 5.6 km/h 58 % 0.0 mm
11:49 22.6 °C 13.7 °C 1015.8 hPa ENE 4.2 km/h 4.2 km/h 57 % 0.0 mm
11:54 22.7 °C 13.4 °C 1015.8 hPa ESE 5.6 km/h 5.6 km/h 56 % 0.0 mm
11:59 22.9 °C 13.7 °C 1015.8 hPa WSW 5.8 km/h 5.8 km/h 56 % 0.0 mm
12:04 23.5 °C 13.1 °C 1015.8 hPa SSE 5.6 km/h 5.6 km/h 52 % 0.0 mm
12:09 23.5 °C 13.1 °C 1014.8 hPa North 3.7 km/h 3.7 km/h 52 % 0.0 mm
12:14 23.7 °C 12.9 °C 1014.8 hPa ENE 2.3 km/h 2.3 km/h 51 % 0.0 mm
12:19 24.0 °C 12.9 °C 1014.8 hPa Calm     50 % 0.0 mm
12:24 24.1 °C 12.7 °C 1015.8 hPa SSW 5.6 km/h 5.6 km/h 49 % 0.0 mm
12:29 24.1 °C 12.7 °C 1015.8 hPa SW 3.7 km/h 3.7 km/h 49 % 0.0 mm
12:34 24.1 °C 12.4 °C 1015.8 hPa SW 7.4 km/h 7.4 km/h 48 % 0.0 mm
12:39 24.1 °C 12.1 °C 1014.8 hPa SSE 5.6 km/h 5.6 km/h 47 % 0.0 mm
12:44 23.8 °C 11.8 °C 1014.8 hPa South 7.4 km/h 7.4 km/h 47 % 0.0 mm
12:49 23.8 °C 12.1 °C 1014.8 hPa SW 7.4 km/h 7.4 km/h 48 % 0.0 mm
12:54 24.1 °C 12.1 °C 1014.8 hPa South 3.9 km/h 3.9 km/h 47 % 0.0 mm
12:59 23.9 °C 11.9 °C 1014.8 hPa SE 7.4 km/h 7.4 km/h 47 % 0.0 mm
13:04 23.8 °C 11.5 °C 1014.8 hPa South 7.4 km/h 7.4 km/h 46 % 0.0 mm
13:09 23.8 °C 11.5 °C 1013.8 hPa SE 9.3 km/h 9.3 km/h 46 % 0.0 mm
13:14 24.0 °C 11.7 °C 1013.8 hPa WSW 5.6 km/h 5.6 km/h 46 % 0.0 mm
13:19 24.1 °C 11.4 °C 1013.8 hPa SSW 5.6 km/h 5.6 km/h 45 % 0.0 mm
13:24 24.5 °C 11.8 °C 1013.8 hPa WSW 7.4 km/h 7.4 km/h 45 % 0.0 mm
13:29 24.7 °C 11.3 °C 1013.8 hPa SW 1.9 km/h 1.9 km/h 43 % 0.0 mm
13:34 25.0 °C 11.6 °C 1013.8 hPa SSW 5.6 km/h 5.6 km/h 43 % 0.0 mm
13:39 25.1 °C 11.6 °C 1013.8 hPa WSW 6.1 km/h 6.1 km/h 43 % 0.0 mm
13:44 25.2 °C 11.7 °C 1013.8 hPa South 13.0 km/h 13.0 km/h 43 % 0.0 mm
13:49 25.2 °C 11.4 °C 1013.8 hPa SW 7.4 km/h 7.4 km/h 42 % 0.0 mm
13:54 25.1 °C 11.3 °C 1013.8 hPa WSW 6.4 km/h 6.4 km/h 42 % 0.0 mm
13:59 25.2 °C 11.0 °C 1013.8 hPa WSW 7.4 km/h 7.4 km/h 41 % 0.0 mm
14:04 25.5 °C 11.3 °C 1013.8 hPa SSW 3.7 km/h 3.7 km/h 41 % 0.0 mm
14:09 25.6 °C 11.4 °C 1013.8 hPa WSW 5.6 km/h 5.6 km/h 41 % 0.0 mm
14:14 25.9 °C 11.6 °C 1013.8 hPa SW 3.7 km/h 3.7 km/h 41 % 0.0 mm
14:19 26.2 °C 11.9 °C 1013.8 hPa SSW 5.6 km/h 5.6 km/h 41 % 0.0 mm
14:24 26.6 °C 12.3 °C 1013.8 hPa SSW 10.0 km/h 10.0 km/h 41 % 0.0 mm
14:29 26.0 °C 11.7 °C 1013.8 hPa West 3.7 km/h 3.7 km/h 41 % 0.0 mm
14:34 26.1 °C 11.4 °C 1013.8 hPa West 9.0 km/h 9.0 km/h 40 % 0.0 mm
14:39 26.2 °C 11.2 °C 1012.8 hPa WSW 3.7 km/h 3.7 km/h 39 % 0.0 mm
14:44 26.3 °C 11.2 °C 1012.8 hPa SW 3.9 km/h 3.9 km/h 39 % 0.0 mm
14:49 26.5 °C 11.8 °C 1012.8 hPa SSW 5.6 km/h 5.6 km/h 40 % 0.0 mm
14:54 26.6 °C 11.9 °C 1012.8 hPa SW 5.6 km/h 5.6 km/h 40 % 0.0 mm
14:59 26.8 °C 11.7 °C 1012.8 hPa WSW 3.7 km/h 3.7 km/h 39 % 0.0 mm
15:04 26.8 °C 11.3 °C 1012.8 hPa SSE 3.7 km/h 3.7 km/h 38 % 0.0 mm
15:09 26.5 °C 11.0 °C 1012.8 hPa East 4.2 km/h 4.2 km/h 38 % 0.0 mm
15:14 26.9 °C 11.4 °C 1012.8 hPa WSW 5.6 km/h 5.6 km/h 38 % 0.0 mm
15:19 27.4 °C 11.4 °C 1012.8 hPa WSW 3.7 km/h 3.7 km/h 37 % 0.0 mm
15:24 27.3 °C 10.9 °C 1011.7 hPa SSE 7.4 km/h 7.4 km/h 36 % 0.0 mm
15:29 27.3 °C 10.9 °C 1011.7 hPa ESE 6.1 km/h 6.1 km/h 36 % 0.0 mm
15:34 27.7 °C 11.7 °C 1011.7 hPa SSE 9.3 km/h 9.3 km/h 37 % 0.0 mm
15:39 28.3 °C 12.2 °C 1011.7 hPa West 5.6 km/h 5.6 km/h 37 % 0.0 mm
15:44 28.3 °C 12.2 °C 1011.7 hPa SW 4.7 km/h 4.7 km/h 37 % 0.0 mm
15:49 28.4 °C 12.3 °C 1011.7 hPa WSW 7.6 km/h 7.6 km/h 37 % 0.0 mm
15:54 28.3 °C 12.2 °C 1011.7 hPa SSW 7.6 km/h 7.6 km/h 37 % 0.0 mm
15:59 27.9 °C 11.9 °C 1011.7 hPa WSW 6.4 km/h 6.4 km/h 37 % 0.0 mm
16:04 27.9 °C 11.9 °C 1011.7 hPa SW 7.9 km/h 7.9 km/h 37 % 0.0 mm
16:09 28.0 °C 11.6 °C 1011.7 hPa South 5.6 km/h 5.6 km/h 36 % 0.0 mm
16:14 28.0 °C 11.6 °C 1011.7 hPa WSW 7.4 km/h 7.4 km/h 36 % 0.0 mm
16:19 27.9 °C 11.9 °C 1011.7 hPa WSW 6.1 km/h 6.9 km/h 37 % 0.0 mm
16:24 27.9 °C 12.3 °C 1011.7 hPa SSW 7.4 km/h 7.4 km/h 38 % 0.0 mm
16:25 28.0 °C 12.3 °C 1011.7 hPa South 7.4 km/h 7.4 km/h 38 % 0.0 mm
16:30 27.5 °C 11.9 °C 1011.7 hPa SW 6.4 km/h 6.4 km/h 38 % 0.0 mm
16:35 27.3 °C 12.1 °C 1011.7 hPa SSW 11.1 km/h 11.1 km/h 39 % 0.0 mm
16:40 27.6 °C 12.4 °C 1011.7 hPa South 9.3 km/h 9.3 km/h 39 % 0.0 mm
16:45 27.5 °C 12.3 °C 1011.7 hPa SW 9.3 km/h 9.3 km/h 39 % 0.0 mm
16:50 27.9 °C 12.7 °C 1011.7 hPa WSW 4.8 km/h 9.7 km/h 39 % 0.0 mm
16:55 28.3 °C 12.6 °C 1011.7 hPa WSW 3.2 km/h 6.4 km/h 38 % 0.0 mm
17:00 28.6 °C 12.9 °C 1011.7 hPa WSW 9.3 km/h 9.3 km/h 38 % 0.0 mm
17:05 28.5 °C 12.4 °C 1011.7 hPa SW 9.3 km/h 9.3 km/h 37 % 0.0 mm
17:10 28.6 °C 12.5 °C 1011.7 hPa SSW 4.8 km/h 11.3 km/h 37 % 0.0 mm
17:15 27.9 °C 12.3 °C 1011.7 hPa SSE 3.9 km/h 3.9 km/h 38 % 0.0 mm
17:20 27.6 °C 12.8 °C 1011.7 hPa South 7.4 km/h 7.4 km/h 40 % 0.0 mm
17:25 27.9 °C 12.7 °C 1010.7 hPa East 7.4 km/h 7.4 km/h 39 % 0.0 mm
17:30 28.1 °C 12.8 °C 1010.7 hPa South 6.1 km/h 6.1 km/h 39 % 0.0 mm
17:35 27.8 °C 12.6 °C 1010.7 hPa SSE 5.6 km/h 5.6 km/h 39 % 0.0 mm
17:40 28.0 °C 12.8 °C 1010.7 hPa West 5.6 km/h 5.6 km/h 39 % 0.0 mm
17:45 28.3 °C 13.0 °C 1010.7 hPa SW 3.7 km/h 3.7 km/h 39 % 0.0 mm
17:50 28.5 °C 13.2 °C 1010.7 hPa South 4.8 km/h 9.7 km/h 39 % 0.0 mm
17:55 28.2 °C 12.9 °C 1010.7 hPa SW 8.0 km/h 14.5 km/h 39 % 0.0 mm
18:00 28.5 °C 13.6 °C 1010.7 hPa SW 7.4 km/h 7.4 km/h 40 % 0.0 mm
18:05 28.5 °C 13.2 °C 1010.7 hPa West 5.6 km/h 6.1 km/h 39 % 0.0 mm
18:10 28.4 °C 13.5 °C 1010.7 hPa SW 4.8 km/h 11.3 km/h 40 % 0.0 mm
18:15 28.5 °C 13.6 °C 1010.7 hPa SW 3.2 km/h 9.7 km/h 40 % 0.0 mm
18:20 27.8 °C 13.3 °C 1010.7 hPa SSW 11.1 km/h 11.1 km/h 41 % 0.0 mm
18:25 28.0 °C 13.5 °C 1011.7 hPa SSW 3.2 km/h 8.0 km/h 41 % 0.0 mm
18:30 27.9 °C 13.8 °C 1011.7 hPa SSW 3.2 km/h 8.0 km/h 42 % 0.0 mm
18:35 27.5 °C 13.4 °C 1011.7 hPa WSW 7.4 km/h 7.4 km/h 42 % 0.0 mm
18:40 27.1 °C 13.4 °C 1011.7 hPa SW 8.0 km/h 11.3 km/h 43 % 0.0 mm
18:45 26.9 °C 13.6 °C 1011.7 hPa SSW 3.2 km/h 8.0 km/h 44 % 0.0 mm
18:50 27.2 °C 13.9 °C 1011.7 hPa SSW 3.2 km/h 9.7 km/h 44 % 0.0 mm
18:55 27.1 °C 14.2 °C 1011.7 hPa SSW 9.3 km/h 9.3 km/h 45 % 0.0 mm
19:00 27.0 °C 14.1 °C 1011.7 hPa West 5.0 km/h 5.0 km/h 45 % 0.0 mm
19:05 26.8 °C 14.2 °C 1011.7 hPa SW 4.8 km/h 9.7 km/h 46 % 0.0 mm
19:10 26.5 °C 14.3 °C 1011.7 hPa SW 3.2 km/h 8.0 km/h 47 % 0.0 mm
19:15 26.3 °C 14.1 °C 1011.7 hPa SW 1.6 km/h 8.0 km/h 47 % 0.0 mm
19:20 26.1 °C 14.2 °C 1011.7 hPa WSW 5.6 km/h 5.6 km/h 48 % 0.0 mm
19:25 26.0 °C 14.1 °C 1011.7 hPa West 1.6 km/h 4.8 km/h 48 % 0.0 mm
19:30 25.5 °C 14.0 °C 1011.7 hPa NNW 3.2 km/h 8.0 km/h 49 % 0.0 mm
19:35 25.0 °C 14.1 °C 1011.7 hPa East 3.2 km/h 9.7 km/h 51 % 0.0 mm
19:40 24.7 °C 14.8 °C 1011.7 hPa ESE 13.0 km/h 13.0 km/h 54 % 0.0 mm
19:45 24.3 °C 14.7 °C 1011.7 hPa East 8.0 km/h 12.9 km/h 55 % 0.0 mm
19:50 23.9 °C 15.1 °C 1011.7 hPa East 13.0 km/h 13.0 km/h 58 % 0.0 mm
19:55 23.7 °C 15.5 °C 1011.7 hPa ESE 15.8 km/h 15.8 km/h 60 % 0.0 mm
20:00 23.6 °C 15.4 °C 1011.7 hPa ESE 8.0 km/h 16.1 km/h 60 % 0.0 mm
20:05 23.5 °C 15.3 °C 1011.7 hPa East 4.8 km/h 9.7 km/h 60 % 0.0 mm
20:10 23.4 °C 15.4 °C 1011.7 hPa East 8.0 km/h 14.5 km/h 61 % 0.0 mm
20:15 23.1 °C 15.9 °C 1011.7 hPa East 8.0 km/h 12.9 km/h 64 % 0.0 mm
20:20 23.0 °C 16.1 °C 1011.7 hPa East 4.8 km/h 12.9 km/h 65 % 0.0 mm
20:25 22.8 °C 16.1 °C 1011.7 hPa East 8.0 km/h 9.7 km/h 66 % 0.0 mm
20:30 22.8 °C 16.1 °C 1011.7 hPa East 8.0 km/h 12.9 km/h 66 % 0.0 mm
20:35 22.6 °C 16.2 °C 1011.7 hPa East 8.0 km/h 11.3 km/h 67 % 0.0 mm
20:40 22.5 °C 16.3 °C 1011.7 hPa East 13.0 km/h 13.0 km/h 68 % 0.0 mm
20:45 22.5 °C 16.3 °C 1011.7 hPa East 3.2 km/h 9.7 km/h 68 % 0.0 mm
20:50 22.5 °C 16.3 °C 1011.7 hPa ENE 4.8 km/h 8.0 km/h 68 % 0.0 mm
20:55 22.4 °C 16.2 °C 1011.7 hPa ENE 3.2 km/h 9.7 km/h 68 % 0.0 mm
21:00 22.3 °C 15.9 °C 1011.7 hPa ENE 3.2 km/h 8.0 km/h 67 % 0.0 mm
21:05 22.1 °C 15.7 °C 1011.7 hPa ENE 8.0 km/h 11.3 km/h 67 % 0.0 mm
21:06 22.0 °C 15.8 °C 1011.7 hPa East 9.3 km/h 9.3 km/h 68 % 0.0 mm
21:10 19.8 °C 15.8 °C 1011.7 hPa Calm     78 % 0.0 mm
21:11 22.0 °C 15.8 °C 1011.7 hPa East 9.3 km/h 9.3 km/h 68 % 0.0 mm
21:16 21.9 °C 15.9 °C 1011.7 hPa ENE 7.4 km/h 7.4 km/h 69 % 0.0 mm
21:20 19.6 °C 15.8 °C 1011.7 hPa East 1.6 km/h 3.2 km/h 79 % 0.0 mm
21:21 21.8 °C 16.1 °C 1011.7 hPa ENE 5.6 km/h 5.8 km/h 70 % 0.0 mm
21:26 21.8 °C 15.8 °C 1011.7 hPa North 7.4 km/h 7.4 km/h 69 % 0.0 mm
21:30 19.4 °C 15.8 °C 1011.7 hPa ENE 1.6 km/h 3.2 km/h 80 % 0.0 mm
21:31 21.7 °C 16.0 °C 1011.7 hPa NE 7.4 km/h 7.4 km/h 70 % 0.0 mm
21:36 21.6 °C 15.9 °C 1011.7 hPa ENE 5.6 km/h 5.8 km/h 70 % 0.0 mm
21:40 19.3 °C 15.9 °C 1010.7 hPa NE 1.6 km/h 3.2 km/h 81 % 0.0 mm
21:41 21.5 °C 15.8 °C 1012.8 hPa ESE 3.7 km/h 3.7 km/h 70 % 0.0 mm
21:46 21.5 °C 15.8 °C 1012.8 hPa ENE 7.6 km/h 7.6 km/h 70 % 0.0 mm
21:50 19.3 °C 16.2 °C 1010.7 hPa Calm   1.6 km/h 82 % 0.0 mm
21:51 21.4 °C 15.7 °C 1012.8 hPa NE 5.6 km/h 5.6 km/h 70 % 0.0 mm
21:56 21.3 °C 15.6 °C 1013.8 hPa ENE 7.4 km/h 7.4 km/h 70 % 0.0 mm
22:00 19.3 °C 16.2 °C 1011.7 hPa NNE 1.6 km/h 1.6 km/h 82 % 0.0 mm
22:01 21.2 °C 15.7 °C 1013.8 hPa East 6.4 km/h 6.4 km/h 71 % 0.0 mm
22:06 21.1 °C 15.6 °C 1013.8 hPa ESE 7.4 km/h 7.4 km/h 71 % 0.0 mm
22:10 19.3 °C 16.3 °C 1011.7 hPa Calm     83 % 0.0 mm
22:11 21.0 °C 15.6 °C 1012.8 hPa NNE 5.6 km/h 5.6 km/h 71 % 0.0 mm
22:16 21.0 °C 15.6 °C 1012.8 hPa East 5.6 km/h 5.6 km/h 71 % 0.0 mm
22:20 19.3 °C 16.3 °C 1011.7 hPa West 1.6 km/h 3.2 km/h 83 % 0.0 mm
22:21 21.0 °C 15.8 °C 1012.8 hPa ENE 5.6 km/h 5.6 km/h 72 % 0.0 mm
22:26 21.0 °C 15.6 °C 1012.8 hPa NNE 5.8 km/h 5.8 km/h 71 % 0.0 mm
22:30 19.2 °C 16.4 °C 1011.7 hPa Calm   1.6 km/h 84 % 0.0 mm
22:31 20.9 °C 15.7 °C 1012.8 hPa North 5.6 km/h 5.6 km/h 72 % 0.0 mm
22:36 20.9 °C 15.7 °C 1012.8 hPa ESE 6.4 km/h 6.4 km/h 72 % 0.0 mm
22:40 19.3 °C 16.7 °C 1011.7 hPa NNE 1.6 km/h 3.2 km/h 85 % 0.0 mm
22:41 20.8 °C 15.8 °C 1012.8 hPa East 3.7 km/h 3.7 km/h 73 % 0.0 mm
22:46 20.8 °C 15.6 °C 1012.8 hPa ENE 4.2 km/h 4.2 km/h 72 % 0.0 mm
22:50 19.2 °C 16.6 °C 1011.7 hPa Calm   3.2 km/h 85 % 0.0 mm
22:51 20.7 °C 15.4 °C 1012.8 hPa East 7.4 km/h 7.4 km/h 72 % 0.0 mm
22:56 20.6 °C 15.6 °C 1012.8 hPa East 3.9 km/h 3.9 km/h 73 % 0.0 mm
23:00 19.0 °C 16.4 °C 1010.7 hPa Calm   3.2 km/h 85 % 0.0 mm
23:01 20.6 °C 15.6 °C 1012.8 hPa ENE 3.7 km/h 3.7 km/h 73 % 0.0 mm
23:06 20.5 °C 15.5 °C 1012.8 hPa NNE 5.8 km/h 5.8 km/h 73 % 0.0 mm
23:10 19.0 °C 16.6 °C 1011.7 hPa SSW 1.6 km/h 3.2 km/h 86 % 0.0 mm
23:11 20.5 °C 15.5 °C 1012.8 hPa NNE 5.6 km/h 5.6 km/h 73 % 0.0 mm
23:16 20.5 °C 15.5 °C 1012.8 hPa NE 5.6 km/h 5.6 km/h 73 % 0.0 mm
23:20 19.0 °C 16.4 °C 1011.7 hPa North 3.2 km/h 3.2 km/h 85 % 0.0 mm
23:21 20.5 °C 15.5 °C 1012.8 hPa East 3.7 km/h 3.9 km/h 73 % 0.0 mm
23:26 20.4 °C 15.4 °C 1013.8 hPa NE 3.7 km/h 3.7 km/h 73 % 0.0 mm
23:30 18.9 °C 16.3 °C 1012.8 hPa WNW 3.2 km/h 3.2 km/h 85 % 0.0 mm
23:31 20.4 °C 15.4 °C 1013.8 hPa NNE 5.6 km/h 5.6 km/h 73 % 0.0 mm
23:36 20.4 °C 15.6 °C 1013.8 hPa NE 5.6 km/h 5.6 km/h 74 % 0.0 mm
23:40 18.9 °C 16.7 °C 1011.7 hPa Calm   1.6 km/h 87 % 0.0 mm
23:41 20.4 °C 15.6 °C 1012.8 hPa NE 3.7 km/h 3.7 km/h 74 % 0.0 mm
23:46 20.4 °C 15.6 °C 1012.8 hPa ESE 3.7 km/h 3.7 km/h 74 % 0.0 mm
23:50 18.9 °C 16.7 °C 1011.7 hPa NW 1.6 km/h 3.2 km/h 87 % 0.0 mm
23:51 20.3 °C 15.5 °C 1012.8 hPa East 3.7 km/h 3.7 km/h 74 % 0.0 mm
23:56 20.3 °C 15.5 °C 1012.8 hPa South 1.9 km/h   74 % 0.0 mm
Meteo Sesrovires
Elogis d' Weather Underground - 3.5 mb

Guio original per  Jim McMurry - jmcmurry@mwt.net Adaptat per a la plantilla per  Wim van der Kuil - Leuven-Template.eu

Trobareu la nostra informacio del temps tambe a:

Weather Underground

AWEKAS